sensor_id;sensor_type;location;lat;lon;timestamp;P1;durP1;ratioP1;P2;durP2;ratioP2
75320;SDS011;68337;52.196;5.660;2023-11-18T00:00:23;41.95;;;19.92;;
75320;SDS011;68337;52.196;5.660;2023-11-18T00:02:49;40.80;;;21.10;;
75320;SDS011;68337;52.196;5.660;2023-11-18T00:05:18;41.20;;;20.92;;
75320;SDS011;68337;52.196;5.660;2023-11-18T00:07:44;41.20;;;20.73;;
75320;SDS011;68337;52.196;5.660;2023-11-18T00:10:10;39.53;;;20.65;;
75320;SDS011;68337;52.196;5.660;2023-11-18T00:12:36;37.22;;;21.17;;
75320;SDS011;68337;52.196;5.660;2023-11-18T00:15:02;38.75;;;21.15;;
75320;SDS011;68337;52.196;5.660;2023-11-18T00:17:32;45.63;;;22.63;;
75320;SDS011;68337;52.196;5.660;2023-11-18T00:19:58;40.40;;;21.45;;
75320;SDS011;68337;52.196;5.660;2023-11-18T00:22:24;42.90;;;21.63;;
75320;SDS011;68337;52.196;5.660;2023-11-18T00:24:49;43.78;;;22.23;;
75320;SDS011;68337;52.196;5.660;2023-11-18T00:27:17;34.20;;;20.63;;
75320;SDS011;68337;52.196;5.660;2023-11-18T00:29:42;40.25;;;21.00;;
75320;SDS011;68337;52.196;5.660;2023-11-18T00:32:11;36.75;;;21.60;;
75320;SDS011;68337;52.196;5.660;2023-11-18T00:34:37;42.50;;;22.48;;
75320;SDS011;68337;52.196;5.660;2023-11-18T00:37:02;43.22;;;23.27;;
75320;SDS011;68337;52.196;5.660;2023-11-18T00:39:28;47.47;;;22.95;;
75320;SDS011;68337;52.196;5.660;2023-11-18T00:41:54;41.53;;;22.52;;
75320;SDS011;68337;52.196;5.660;2023-11-18T00:44:21;43.13;;;22.35;;
75320;SDS011;68337;52.196;5.660;2023-11-18T00:46:47;44.30;;;23.50;;
75320;SDS011;68337;52.196;5.660;2023-11-18T00:49:12;42.70;;;22.45;;
75320;SDS011;68337;52.196;5.660;2023-11-18T00:51:38;39.92;;;22.55;;
75320;SDS011;68337;52.196;5.660;2023-11-18T00:54:04;45.97;;;22.63;;
75320;SDS011;68337;52.196;5.660;2023-11-18T00:56:33;39.10;;;22.17;;
75320;SDS011;68337;52.196;5.660;2023-11-18T00:58:58;38.22;;;21.08;;
75320;SDS011;68337;52.196;5.660;2023-11-18T01:01:26;39.03;;;21.88;;
75320;SDS011;68337;52.196;5.660;2023-11-18T01:03:52;41.15;;;22.33;;
75320;SDS011;68337;52.196;5.660;2023-11-18T01:06:18;39.58;;;20.98;;
75320;SDS011;68337;52.196;5.660;2023-11-18T01:08:45;34.83;;;21.25;;
75320;SDS011;68337;52.196;5.660;2023-11-18T01:11:11;35.90;;;20.35;;
75320;SDS011;68337;52.196;5.660;2023-11-18T01:13:40;37.10;;;20.75;;
75320;SDS011;68337;52.196;5.660;2023-11-18T01:16:06;33.83;;;19.88;;
75320;SDS011;68337;52.196;5.660;2023-11-18T01:18:32;40.15;;;21.52;;
75320;SDS011;68337;52.196;5.660;2023-11-18T01:20:58;38.35;;;21.80;;
75320;SDS011;68337;52.196;5.660;2023-11-18T01:23:24;36.10;;;19.50;;
75320;SDS011;68337;52.196;5.660;2023-11-18T01:25:49;35.72;;;19.90;;
75320;SDS011;68337;52.196;5.660;2023-11-18T01:28:16;40.53;;;20.40;;
75320;SDS011;68337;52.196;5.660;2023-11-18T01:30:42;40.45;;;22.58;;
75320;SDS011;68337;52.196;5.660;2023-11-18T01:33:09;34.75;;;19.88;;
75320;SDS011;68337;52.196;5.660;2023-11-18T01:35:36;40.50;;;20.88;;
75320;SDS011;68337;52.196;5.660;2023-11-18T01:38:01;34.92;;;19.63;;
75320;SDS011;68337;52.196;5.660;2023-11-18T01:40:27;40.08;;;20.63;;
75320;SDS011;68337;52.196;5.660;2023-11-18T01:42:56;40.28;;;20.42;;
75320;SDS011;68337;52.196;5.660;2023-11-18T01:45:21;36.70;;;19.75;;
75320;SDS011;68337;52.196;5.660;2023-11-18T01:47:47;37.35;;;19.95;;
75320;SDS011;68337;52.196;5.660;2023-11-18T01:50:13;35.75;;;21.05;;
75320;SDS011;68337;52.196;5.660;2023-11-18T01:52:42;39.78;;;21.50;;
75320;SDS011;68337;52.196;5.660;2023-11-18T01:55:09;40.38;;;21.00;;
75320;SDS011;68337;52.196;5.660;2023-11-18T01:57:38;36.58;;;20.42;;
75320;SDS011;68337;52.196;5.660;2023-11-18T02:00:05;37.90;;;21.20;;
75320;SDS011;68337;52.196;5.660;2023-11-18T02:02:34;44.08;;;23.02;;
75320;SDS011;68337;52.196;5.660;2023-11-18T02:05:00;38.80;;;22.63;;
75320;SDS011;68337;52.196;5.660;2023-11-18T02:07:27;45.75;;;23.10;;
75320;SDS011;68337;52.196;5.660;2023-11-18T02:09:54;36.97;;;21.45;;
75320;SDS011;68337;52.196;5.660;2023-11-18T02:12:27;48.85;;;24.85;;
75320;SDS011;68337;52.196;5.660;2023-11-18T02:14:59;51.08;;;26.75;;
75320;SDS011;68337;52.196;5.660;2023-11-18T02:17:26;50.15;;;25.17;;
75320;SDS011;68337;52.196;5.660;2023-11-18T02:19:54;54.25;;;26.40;;
75320;SDS011;68337;52.196;5.660;2023-11-18T02:22:22;45.75;;;24.95;;
75320;SDS011;68337;52.196;5.660;2023-11-18T02:24:48;52.40;;;25.98;;
75320;SDS011;68337;52.196;5.660;2023-11-18T02:27:15;60.67;;;28.77;;
75320;SDS011;68337;52.196;5.660;2023-11-18T02:29:42;56.72;;;27.98;;
75320;SDS011;68337;52.196;5.660;2023-11-18T02:32:30;68.93;;;31.58;;
75320;SDS011;68337;52.196;5.660;2023-11-18T02:35:24;57.03;;;28.77;;
75320;SDS011;68337;52.196;5.660;2023-11-18T02:37:55;58.95;;;28.80;;
75320;SDS011;68337;52.196;5.660;2023-11-18T02:40:28;68.95;;;33.33;;
75320;SDS011;68337;52.196;5.660;2023-11-18T02:42:58;59.83;;;31.27;;
75320;SDS011;68337;52.196;5.660;2023-11-18T02:45:25;60.58;;;31.02;;
75320;SDS011;68337;52.196;5.660;2023-11-18T02:47:52;63.53;;;31.10;;
75320;SDS011;68337;52.196;5.660;2023-11-18T02:50:23;72.68;;;33.25;;
75320;SDS011;68337;52.196;5.660;2023-11-18T02:52:52;66.53;;;30.77;;
75320;SDS011;68337;52.196;5.660;2023-11-18T02:55:18;66.47;;;32.17;;
75320;SDS011;68337;52.196;5.660;2023-11-18T02:57:46;64.93;;;31.10;;
75320;SDS011;68337;52.196;5.660;2023-11-18T03:00:12;69.93;;;32.97;;
75320;SDS011;68337;52.196;5.660;2023-11-18T03:02:44;58.97;;;30.08;;
75320;SDS011;68337;52.196;5.660;2023-11-18T03:05:12;59.03;;;30.73;;
75320;SDS011;68337;52.196;5.660;2023-11-18T03:07:39;65.45;;;30.88;;
75320;SDS011;68337;52.196;5.660;2023-11-18T03:10:06;63.78;;;31.73;;
75320;SDS011;68337;52.196;5.660;2023-11-18T03:12:37;60.70;;;31.85;;
75320;SDS011;68337;52.196;5.660;2023-11-18T03:15:06;58.42;;;29.38;;
75320;SDS011;68337;52.196;5.660;2023-11-18T03:17:34;56.53;;;31.27;;
75320;SDS011;68337;52.196;5.660;2023-11-18T03:20:00;60.25;;;31.20;;
75320;SDS011;68337;52.196;5.660;2023-11-18T03:22:25;71.00;;;34.10;;
75320;SDS011;68337;52.196;5.660;2023-11-18T03:24:51;60.55;;;30.77;;
75320;SDS011;68337;52.196;5.660;2023-11-18T03:27:17;53.50;;;28.27;;
75320;SDS011;68337;52.196;5.660;2023-11-18T03:29:43;52.25;;;28.98;;
75320;SDS011;68337;52.196;5.660;2023-11-18T03:32:11;53.83;;;28.98;;
75320;SDS011;68337;52.196;5.660;2023-11-18T03:34:37;60.60;;;30.08;;
75320;SDS011;68337;52.196;5.660;2023-11-18T03:37:03;53.78;;;30.13;;
75320;SDS011;68337;52.196;5.660;2023-11-18T03:39:29;55.72;;;29.80;;
75320;SDS011;68337;52.196;5.660;2023-11-18T03:41:55;57.40;;;30.05;;
75320;SDS011;68337;52.196;5.660;2023-11-18T03:44:22;53.20;;;31.23;;
75320;SDS011;68337;52.196;5.660;2023-11-18T03:46:51;60.05;;;30.35;;
75320;SDS011;68337;52.196;5.660;2023-11-18T03:49:17;58.80;;;29.33;;
75320;SDS011;68337;52.196;5.660;2023-11-18T03:51:42;58.55;;;30.25;;
75320;SDS011;68337;52.196;5.660;2023-11-18T03:54:08;55.38;;;29.50;;
75320;SDS011;68337;52.196;5.660;2023-11-18T03:56:34;58.65;;;29.90;;
75320;SDS011;68337;52.196;5.660;2023-11-18T03:59:00;64.25;;;32.53;;
75320;SDS011;68337;52.196;5.660;2023-11-18T04:01:25;71.25;;;32.70;;
75320;SDS011;68337;52.196;5.660;2023-11-18T04:03:54;63.17;;;31.75;;
75320;SDS011;68337;52.196;5.660;2023-11-18T04:06:21;65.72;;;31.65;;
75320;SDS011;68337;52.196;5.660;2023-11-18T04:08:50;66.57;;;32.05;;
75320;SDS011;68337;52.196;5.660;2023-11-18T04:11:16;73.22;;;33.33;;
75320;SDS011;68337;52.196;5.660;2023-11-18T04:13:42;70.95;;;32.53;;
75320;SDS011;68337;52.196;5.660;2023-11-18T04:16:10;69.85;;;33.85;;
75320;SDS011;68337;52.196;5.660;2023-11-18T04:18:44;80.32;;;34.58;;
75320;SDS011;68337;52.196;5.660;2023-11-18T04:21:11;80.00;;;36.13;;
75320;SDS011;68337;52.196;5.660;2023-11-18T04:23:38;77.65;;;35.53;;
75320;SDS011;68337;52.196;5.660;2023-11-18T04:26:05;88.63;;;37.90;;
75320;SDS011;68337;52.196;5.660;2023-11-18T04:28:32;77.18;;;34.35;;
75320;SDS011;68337;52.196;5.660;2023-11-18T04:31:01;84.82;;;35.28;;
75320;SDS011;68337;52.196;5.660;2023-11-18T04:33:28;84.03;;;35.78;;
75320;SDS011;68337;52.196;5.660;2023-11-18T04:35:54;90.00;;;37.28;;
75320;SDS011;68337;52.196;5.660;2023-11-18T04:38:23;86.05;;;38.35;;
75320;SDS011;68337;52.196;5.660;2023-11-18T04:40:53;89.35;;;36.63;;
75320;SDS011;68337;52.196;5.660;2023-11-18T04:43:19;80.38;;;35.97;;
75320;SDS011;68337;52.196;5.660;2023-11-18T04:45:45;85.75;;;37.53;;
75320;SDS011;68337;52.196;5.660;2023-11-18T04:48:11;84.78;;;36.05;;
75320;SDS011;68337;52.196;5.660;2023-11-18T04:50:42;99.18;;;39.00;;
75320;SDS011;68337;52.196;5.660;2023-11-18T04:53:08;93.75;;;40.42;;
75320;SDS011;68337;52.196;5.660;2023-11-18T04:55:36;84.10;;;36.92;;
75320;SDS011;68337;52.196;5.660;2023-11-18T04:58:05;89.68;;;36.80;;
75320;SDS011;68337;52.196;5.660;2023-11-18T05:00:34;91.22;;;36.60;;
75320;SDS011;68337;52.196;5.660;2023-11-18T05:03:00;89.60;;;38.80;;
75320;SDS011;68337;52.196;5.660;2023-11-18T05:05:26;91.22;;;37.22;;
75320;SDS011;68337;52.196;5.660;2023-11-18T05:07:52;89.55;;;38.17;;
75320;SDS011;68337;52.196;5.660;2023-11-18T05:10:17;94.68;;;37.63;;
75320;SDS011;68337;52.196;5.660;2023-11-18T05:12:43;93.18;;;37.15;;
75320;SDS011;68337;52.196;5.660;2023-11-18T05:15:09;96.63;;;39.65;;
75320;SDS011;68337;52.196;5.660;2023-11-18T05:17:36;99.65;;;40.22;;
75320;SDS011;68337;52.196;5.660;2023-11-18T05:20:05;93.20;;;37.88;;
75320;SDS011;68337;52.196;5.660;2023-11-18T05:22:34;99.63;;;39.90;;
75320;SDS011;68337;52.196;5.660;2023-11-18T05:25:01;93.72;;;38.85;;
75320;SDS011;68337;52.196;5.660;2023-11-18T05:27:29;107.82;;;39.53;;
75320;SDS011;68337;52.196;5.660;2023-11-18T05:29:56;93.28;;;37.72;;
75320;SDS011;68337;52.196;5.660;2023-11-18T05:32:26;90.43;;;38.15;;
75320;SDS011;68337;52.196;5.660;2023-11-18T05:34:53;88.32;;;37.10;;
75320;SDS011;68337;52.196;5.660;2023-11-18T05:37:23;92.47;;;38.97;;
75320;SDS011;68337;52.196;5.660;2023-11-18T05:39:49;94.50;;;39.10;;
75320;SDS011;68337;52.196;5.660;2023-11-18T05:42:27;85.18;;;37.00;;
75320;SDS011;68337;52.196;5.660;2023-11-18T05:44:52;93.70;;;40.03;;
75320;SDS011;68337;52.196;5.660;2023-11-18T05:47:26;88.75;;;36.72;;
75320;SDS011;68337;52.196;5.660;2023-11-18T05:49:52;86.28;;;36.60;;
75320;SDS011;68337;52.196;5.660;2023-11-18T05:52:18;85.93;;;36.67;;
75320;SDS011;68337;52.196;5.660;2023-11-18T05:54:45;79.15;;;34.58;;
75320;SDS011;68337;52.196;5.660;2023-11-18T05:57:17;80.60;;;33.78;;
75320;SDS011;68337;52.196;5.660;2023-11-18T05:59:43;79.35;;;33.35;;
75320;SDS011;68337;52.196;5.660;2023-11-18T06:02:13;89.13;;;33.20;;
75320;SDS011;68337;52.196;5.660;2023-11-18T06:04:43;83.68;;;35.20;;
75320;SDS011;68337;52.196;5.660;2023-11-18T06:07:12;81.35;;;34.35;;
75320;SDS011;68337;52.196;5.660;2023-11-18T06:09:39;76.70;;;34.40;;
75320;SDS011;68337;52.196;5.660;2023-11-18T06:12:09;76.57;;;33.72;;
75320;SDS011;68337;52.196;5.660;2023-11-18T06:14:36;69.50;;;32.03;;
75320;SDS011;68337;52.196;5.660;2023-11-18T06:17:02;75.78;;;33.03;;
75320;SDS011;68337;52.196;5.660;2023-11-18T06:19:28;72.57;;;33.95;;
75320;SDS011;68337;52.196;5.660;2023-11-18T06:21:54;71.38;;;33.88;;
75320;SDS011;68337;52.196;5.660;2023-11-18T06:24:20;75.53;;;35.47;;
75320;SDS011;68337;52.196;5.660;2023-11-18T06:26:46;82.13;;;34.63;;
75320;SDS011;68337;52.196;5.660;2023-11-18T06:29:14;72.25;;;32.03;;
75320;SDS011;68337;52.196;5.660;2023-11-18T06:31:40;76.47;;;32.83;;
75320;SDS011;68337;52.196;5.660;2023-11-18T06:34:07;68.05;;;32.90;;
75320;SDS011;68337;52.196;5.660;2023-11-18T06:36:33;68.10;;;32.05;;
75320;SDS011;68337;52.196;5.660;2023-11-18T06:38:59;72.95;;;33.85;;
75320;SDS011;68337;52.196;5.660;2023-11-18T06:41:25;79.45;;;33.97;;
75320;SDS011;68337;52.196;5.660;2023-11-18T06:43:58;78.55;;;31.83;;
75320;SDS011;68337;52.196;5.660;2023-11-18T06:46:33;63.05;;;31.05;;
75320;SDS011;68337;52.196;5.660;2023-11-18T06:49:00;63.85;;;30.98;;
75320;SDS011;68337;52.196;5.660;2023-11-18T06:51:31;73.50;;;33.22;;
75320;SDS011;68337;52.196;5.660;2023-11-18T06:54:03;61.65;;;30.85;;
75320;SDS011;68337;52.196;5.660;2023-11-18T06:56:34;59.67;;;29.83;;
75320;SDS011;68337;52.196;5.660;2023-11-18T06:59:04;61.25;;;30.40;;
75320;SDS011;68337;52.196;5.660;2023-11-18T07:01:31;55.20;;;29.27;;
75320;SDS011;68337;52.196;5.660;2023-11-18T07:03:58;60.58;;;29.85;;
75320;SDS011;68337;52.196;5.660;2023-11-18T07:06:24;62.28;;;29.33;;
75320;SDS011;68337;52.196;5.660;2023-11-18T07:08:51;62.53;;;31.38;;
75320;SDS011;68337;52.196;5.660;2023-11-18T07:11:19;69.53;;;33.95;;
75320;SDS011;68337;52.196;5.660;2023-11-18T07:13:47;74.68;;;36.38;;
75320;SDS011;68337;52.196;5.660;2023-11-18T07:16:21;76.53;;;37.72;;
75320;SDS011;68337;52.196;5.660;2023-11-18T07:18:50;68.38;;;36.42;;
75320;SDS011;68337;52.196;5.660;2023-11-18T07:21:18;62.00;;;34.47;;
75320;SDS011;68337;52.196;5.660;2023-11-18T07:23:43;73.82;;;34.65;;
75320;SDS011;68337;52.196;5.660;2023-11-18T07:26:09;61.10;;;32.38;;
75320;SDS011;68337;52.196;5.660;2023-11-18T07:28:35;66.43;;;32.35;;
75320;SDS011;68337;52.196;5.660;2023-11-18T07:31:01;64.10;;;32.65;;
75320;SDS011;68337;52.196;5.660;2023-11-18T07:33:30;53.70;;;31.60;;
75320;SDS011;68337;52.196;5.660;2023-11-18T07:35:58;63.75;;;31.95;;
75320;SDS011;68337;52.196;5.660;2023-11-18T07:38:24;62.40;;;31.52;;
75320;SDS011;68337;52.196;5.660;2023-11-18T07:40:52;66.65;;;33.03;;
75320;SDS011;68337;52.196;5.660;2023-11-18T07:43:21;58.28;;;33.05;;
75320;SDS011;68337;52.196;5.660;2023-11-18T07:45:51;53.50;;;29.95;;
75320;SDS011;68337;52.196;5.660;2023-11-18T07:48:18;51.42;;;30.15;;
75320;SDS011;68337;52.196;5.660;2023-11-18T07:50:45;61.90;;;31.58;;
75320;SDS011;68337;52.196;5.660;2023-11-18T07:53:15;52.50;;;29.25;;
75320;SDS011;68337;52.196;5.660;2023-11-18T07:55:41;58.85;;;29.88;;
75320;SDS011;68337;52.196;5.660;2023-11-18T07:58:07;61.35;;;31.73;;
75320;SDS011;68337;52.196;5.660;2023-11-18T08:00:39;62.13;;;35.63;;
75320;SDS011;68337;52.196;5.660;2023-11-18T08:03:06;70.00;;;38.80;;
75320;SDS011;68337;52.196;5.660;2023-11-18T08:05:40;66.25;;;41.10;;
75320;SDS011;68337;52.196;5.660;2023-11-18T08:08:08;63.60;;;38.17;;
75320;SDS011;68337;52.196;5.660;2023-11-18T08:10:36;64.88;;;34.05;;
75320;SDS011;68337;52.196;5.660;2023-11-18T08:13:06;63.83;;;33.97;;
75320;SDS011;68337;52.196;5.660;2023-11-18T08:15:33;55.20;;;31.13;;
75320;SDS011;68337;52.196;5.660;2023-11-18T08:18:06;54.10;;;29.80;;
75320;SDS011;68337;52.196;5.660;2023-11-18T08:20:35;58.55;;;31.30;;
75320;SDS011;68337;52.196;5.660;2023-11-18T08:23:02;55.30;;;31.10;;
75320;SDS011;68337;52.196;5.660;2023-11-18T08:25:29;60.50;;;32.75;;
75320;SDS011;68337;52.196;5.660;2023-11-18T08:27:58;58.42;;;35.35;;
75320;SDS011;68337;52.196;5.660;2023-11-18T08:30:25;60.70;;;35.20;;
75320;SDS011;68337;52.196;5.660;2023-11-18T08:32:51;58.15;;;36.03;;
75320;SDS011;68337;52.196;5.660;2023-11-18T08:35:17;59.42;;;37.75;;
75320;SDS011;68337;52.196;5.660;2023-11-18T08:37:43;62.08;;;35.95;;
75320;SDS011;68337;52.196;5.660;2023-11-18T08:40:10;63.38;;;35.60;;
75320;SDS011;68337;52.196;5.660;2023-11-18T08:42:50;55.72;;;33.58;;
75320;SDS011;68337;52.196;5.660;2023-11-18T08:45:17;56.47;;;35.13;;
75320;SDS011;68337;52.196;5.660;2023-11-18T08:47:46;64.05;;;38.13;;
75320;SDS011;68337;52.196;5.660;2023-11-18T08:50:16;67.07;;;41.28;;
75320;SDS011;68337;52.196;5.660;2023-11-18T08:52:45;58.60;;;37.58;;
75320;SDS011;68337;52.196;5.660;2023-11-18T08:55:15;56.83;;;34.63;;
75320;SDS011;68337;52.196;5.660;2023-11-18T08:57:47;46.30;;;28.95;;
75320;SDS011;68337;52.196;5.660;2023-11-18T09:00:29;41.85;;;27.00;;
75320;SDS011;68337;52.196;5.660;2023-11-18T09:03:18;46.35;;;24.92;;
75320;SDS011;68337;52.196;5.660;2023-11-18T09:05:55;44.45;;;24.20;;
75320;SDS011;68337;52.196;5.660;2023-11-18T09:08:28;39.75;;;23.17;;
75320;SDS011;68337;52.196;5.660;2023-11-18T09:11:05;43.25;;;22.55;;
75320;SDS011;68337;52.196;5.660;2023-11-18T09:13:32;39.70;;;22.02;;
75320;SDS011;68337;52.196;5.660;2023-11-18T09:16:03;44.75;;;22.50;;
75320;SDS011;68337;52.196;5.660;2023-11-18T09:18:34;36.03;;;21.27;;
75320;SDS011;68337;52.196;5.660;2023-11-18T09:21:04;38.63;;;20.88;;
75320;SDS011;68337;52.196;5.660;2023-11-18T09:23:32;38.70;;;20.55;;
75320;SDS011;68337;52.196;5.660;2023-11-18T09:26:03;31.08;;;20.92;;
75320;SDS011;68337;52.196;5.660;2023-11-18T09:28:35;41.72;;;25.55;;
75320;SDS011;68337;52.196;5.660;2023-11-18T09:31:02;36.63;;;26.23;;
75320;SDS011;68337;52.196;5.660;2023-11-18T09:33:31;36.28;;;23.75;;
75320;SDS011;68337;52.196;5.660;2023-11-18T09:35:59;31.48;;;21.58;;
75320;SDS011;68337;52.196;5.660;2023-11-18T09:38:40;31.15;;;19.65;;
75320;SDS011;68337;52.196;5.660;2023-11-18T09:41:07;27.02;;;17.98;;
75320;SDS011;68337;52.196;5.660;2023-11-18T09:43:40;30.95;;;18.88;;
75320;SDS011;68337;52.196;5.660;2023-11-18T09:46:11;29.50;;;18.15;;
75320;SDS011;68337;52.196;5.660;2023-11-18T09:51:21;26.90;;;17.05;;
75320;SDS011;68337;52.196;5.660;2023-11-18T09:53:49;28.48;;;15.68;;
75320;SDS011;68337;52.196;5.660;2023-11-18T09:59:05;29.05;;;15.15;;
75320;SDS011;68337;52.196;5.660;2023-11-18T10:01:40;28.45;;;13.93;;
75320;SDS011;68337;52.196;5.660;2023-11-18T10:04:09;26.52;;;14.63;;
75320;SDS011;68337;52.196;5.660;2023-11-18T10:06:36;22.85;;;14.70;;
75320;SDS011;68337;52.196;5.660;2023-11-18T10:09:05;23.05;;;13.27;;
75320;SDS011;68337;52.196;5.660;2023-11-18T10:11:43;23.30;;;13.70;;
75320;SDS011;68337;52.196;5.660;2023-11-18T10:14:12;31.55;;;13.20;;
75320;SDS011;68337;52.196;5.660;2023-11-18T10:16:41;27.15;;;13.70;;
75320;SDS011;68337;52.196;5.660;2023-11-18T10:19:13;23.90;;;14.02;;
75320;SDS011;68337;52.196;5.660;2023-11-18T10:21:39;25.70;;;12.57;;
75320;SDS011;68337;52.196;5.660;2023-11-18T10:24:06;22.33;;;13.35;;
75320;SDS011;68337;52.196;5.660;2023-11-18T10:26:44;22.15;;;13.38;;
75320;SDS011;68337;52.196;5.660;2023-11-18T10:29:19;20.73;;;13.40;;
75320;SDS011;68337;52.196;5.660;2023-11-18T10:31:45;22.75;;;12.45;;
75320;SDS011;68337;52.196;5.660;2023-11-18T10:34:11;26.52;;;13.77;;
75320;SDS011;68337;52.196;5.660;2023-11-18T10:36:41;23.35;;;13.07;;
75320;SDS011;68337;52.196;5.660;2023-11-18T10:39:13;27.45;;;13.25;;
75320;SDS011;68337;52.196;5.660;2023-11-18T10:41:41;24.23;;;14.13;;
75320;SDS011;68337;52.196;5.660;2023-11-18T10:44:08;25.55;;;14.18;;
75320;SDS011;68337;52.196;5.660;2023-11-18T10:46:38;23.02;;;13.25;;
75320;SDS011;68337;52.196;5.660;2023-11-18T10:49:06;22.50;;;12.82;;
75320;SDS011;68337;52.196;5.660;2023-11-18T10:51:35;23.35;;;13.85;;
75320;SDS011;68337;52.196;5.660;2023-11-18T10:54:04;23.17;;;13.10;;
75320;SDS011;68337;52.196;5.660;2023-11-18T10:56:30;25.58;;;13.88;;
75320;SDS011;68337;52.196;5.660;2023-11-18T11:01:36;25.75;;;14.93;;
75320;SDS011;68337;52.196;5.660;2023-11-18T11:04:07;31.65;;;15.10;;
75320;SDS011;68337;52.196;5.660;2023-11-18T11:06:35;28.40;;;14.60;;
75320;SDS011;68337;52.196;5.660;2023-11-18T11:09:06;26.23;;;14.45;;
75320;SDS011;68337;52.196;5.660;2023-11-18T11:11:49;27.17;;;13.70;;
75320;SDS011;68337;52.196;5.660;2023-11-18T11:14:20;36.75;;;14.90;;
75320;SDS011;68337;52.196;5.660;2023-11-18T11:17:00;25.55;;;13.40;;
75320;SDS011;68337;52.196;5.660;2023-11-18T11:19:50;28.00;;;13.30;;
75320;SDS011;68337;52.196;5.660;2023-11-18T11:22:29;24.98;;;12.88;;
75320;SDS011;68337;52.196;5.660;2023-11-18T11:25:12;27.75;;;13.55;;
75320;SDS011;68337;52.196;5.660;2023-11-18T11:27:59;26.08;;;13.43;;
75320;SDS011;68337;52.196;5.660;2023-11-18T11:30:45;34.28;;;15.27;;
75320;SDS011;68337;52.196;5.660;2023-11-18T11:36:05;27.70;;;12.60;;
75320;SDS011;68337;52.196;5.660;2023-11-18T11:38:37;23.00;;;12.82;;
75320;SDS011;68337;52.196;5.660;2023-11-18T11:41:03;27.20;;;13.70;;
75320;SDS011;68337;52.196;5.660;2023-11-18T11:43:30;28.08;;;12.98;;
75320;SDS011;68337;52.196;5.660;2023-11-18T11:45:59;24.00;;;12.25;;
75320;SDS011;68337;52.196;5.660;2023-11-18T11:48:35;27.45;;;13.35;;
75320;SDS011;68337;52.196;5.660;2023-11-18T11:51:03;25.05;;;12.90;;
75320;SDS011;68337;52.196;5.660;2023-11-18T11:53:39;25.48;;;12.30;;
75320;SDS011;68337;52.196;5.660;2023-11-18T11:56:12;24.30;;;12.70;;
75320;SDS011;68337;52.196;5.660;2023-11-18T11:58:46;25.65;;;13.10;;
75320;SDS011;68337;52.196;5.660;2023-11-18T12:01:21;21.95;;;12.30;;
75320;SDS011;68337;52.196;5.660;2023-11-18T12:03:54;23.00;;;11.25;;
75320;SDS011;68337;52.196;5.660;2023-11-18T12:06:22;23.52;;;12.35;;
75320;SDS011;68337;52.196;5.660;2023-11-18T12:08:52;22.92;;;12.20;;
75320;SDS011;68337;52.196;5.660;2023-11-18T12:11:18;20.10;;;11.88;;
75320;SDS011;68337;52.196;5.660;2023-11-18T12:14:04;20.33;;;12.20;;
75320;SDS011;68337;52.196;5.660;2023-11-18T12:19:29;21.42;;;10.75;;
75320;SDS011;68337;52.196;5.660;2023-11-18T12:21:57;18.50;;;10.85;;
75320;SDS011;68337;52.196;5.660;2023-11-18T12:24:25;22.10;;;11.25;;
75320;SDS011;68337;52.196;5.660;2023-11-18T12:26:54;23.58;;;11.40;;
75320;SDS011;68337;52.196;5.660;2023-11-18T12:29:32;18.50;;;10.77;;
75320;SDS011;68337;52.196;5.660;2023-11-18T12:32:01;18.23;;;10.23;;
75320;SDS011;68337;52.196;5.660;2023-11-18T12:34:49;19.85;;;10.18;;
75320;SDS011;68337;52.196;5.660;2023-11-18T12:40:09;18.50;;;10.02;;
75320;SDS011;68337;52.196;5.660;2023-11-18T12:43:05;23.30;;;11.10;;
75320;SDS011;68337;52.196;5.660;2023-11-18T12:48:20;19.58;;;9.90;;
75320;SDS011;68337;52.196;5.660;2023-11-18T12:50:53;17.55;;;9.68;;
75320;SDS011;68337;52.196;5.660;2023-11-18T12:53:20;14.02;;;9.52;;
75320;SDS011;68337;52.196;5.660;2023-11-18T12:55:49;17.48;;;9.40;;
75320;SDS011;68337;52.196;5.660;2023-11-18T12:58:15;16.92;;;10.60;;
75320;SDS011;68337;52.196;5.660;2023-11-18T13:00:43;20.02;;;9.65;;
75320;SDS011;68337;52.196;5.660;2023-11-18T13:03:10;18.27;;;10.10;;
75320;SDS011;68337;52.196;5.660;2023-11-18T13:05:36;21.30;;;9.13;;
75320;SDS011;68337;52.196;5.660;2023-11-18T13:08:03;14.30;;;9.30;;
75320;SDS011;68337;52.196;5.660;2023-11-18T13:10:29;17.55;;;9.35;;
75320;SDS011;68337;52.196;5.660;2023-11-18T13:12:56;15.63;;;9.05;;
75320;SDS011;68337;52.196;5.660;2023-11-18T13:15:24;14.48;;;9.00;;
75320;SDS011;68337;52.196;5.660;2023-11-18T13:18:00;18.20;;;9.23;;
75320;SDS011;68337;52.196;5.660;2023-11-18T13:20:27;13.75;;;8.73;;
75320;SDS011;68337;52.196;5.660;2023-11-18T13:22:54;13.82;;;8.00;;
75320;SDS011;68337;52.196;5.660;2023-11-18T13:25:21;14.30;;;8.40;;
75320;SDS011;68337;52.196;5.660;2023-11-18T13:27:48;13.65;;;8.52;;
75320;SDS011;68337;52.196;5.660;2023-11-18T13:30:14;14.65;;;8.23;;
75320;SDS011;68337;52.196;5.660;2023-11-18T13:32:42;12.20;;;8.20;;
75320;SDS011;68337;52.196;5.660;2023-11-18T13:35:08;16.38;;;7.90;;
75320;SDS011;68337;52.196;5.660;2023-11-18T13:37:38;12.73;;;7.47;;
75320;SDS011;68337;52.196;5.660;2023-11-18T13:40:07;14.30;;;8.20;;
75320;SDS011;68337;52.196;5.660;2023-11-18T13:42:33;11.82;;;7.65;;
75320;SDS011;68337;52.196;5.660;2023-11-18T13:45:19;12.25;;;7.22;;
75320;SDS011;68337;52.196;5.660;2023-11-18T13:47:50;12.95;;;7.40;;
75320;SDS011;68337;52.196;5.660;2023-11-18T13:50:19;15.13;;;7.25;;
75320;SDS011;68337;52.196;5.660;2023-11-18T13:52:45;10.93;;;7.07;;
75320;SDS011;68337;52.196;5.660;2023-11-18T13:55:14;11.68;;;6.75;;
75320;SDS011;68337;52.196;5.660;2023-11-18T13:57:52;8.80;;;6.00;;
75320;SDS011;68337;52.196;5.660;2023-11-18T14:00:23;9.88;;;5.72;;
75320;SDS011;68337;52.196;5.660;2023-11-18T14:02:52;7.20;;;5.88;;
75320;SDS011;68337;52.196;5.660;2023-11-18T14:05:21;6.72;;;5.85;;
75320;SDS011;68337;52.196;5.660;2023-11-18T14:07:49;6.47;;;5.30;;
75320;SDS011;68337;52.196;5.660;2023-11-18T14:10:31;9.05;;;5.13;;
75320;SDS011;68337;52.196;5.660;2023-11-18T14:13:04;6.97;;;5.45;;
75320;SDS011;68337;52.196;5.660;2023-11-18T14:15:48;9.60;;;5.57;;
75320;SDS011;68337;52.196;5.660;2023-11-18T14:18:20;9.10;;;4.75;;
75320;SDS011;68337;52.196;5.660;2023-11-18T14:20:46;8.35;;;5.05;;
75320;SDS011;68337;52.196;5.660;2023-11-18T14:23:13;6.88;;;5.28;;
75320;SDS011;68337;52.196;5.660;2023-11-18T14:25:39;6.18;;;4.70;;
75320;SDS011;68337;52.196;5.660;2023-11-18T14:28:05;8.00;;;4.38;;
75320;SDS011;68337;52.196;5.660;2023-11-18T14:30:34;5.65;;;4.68;;
75320;SDS011;68337;52.196;5.660;2023-11-18T14:32:59;6.15;;;4.97;;
75320;SDS011;68337;52.196;5.660;2023-11-18T14:35:25;5.63;;;4.35;;
75320;SDS011;68337;52.196;5.660;2023-11-18T14:37:51;4.80;;;3.97;;
75320;SDS011;68337;52.196;5.660;2023-11-18T14:40:17;4.35;;;3.40;;
75320;SDS011;68337;52.196;5.660;2023-11-18T14:42:43;7.70;;;3.55;;
75320;SDS011;68337;52.196;5.660;2023-11-18T14:45:12;4.10;;;3.67;;
75320;SDS011;68337;52.196;5.660;2023-11-18T14:47:41;4.00;;;3.33;;
75320;SDS011;68337;52.196;5.660;2023-11-18T14:50:18;4.30;;;3.20;;
75320;SDS011;68337;52.196;5.660;2023-11-18T14:52:45;4.82;;;3.08;;